Portada
METAR-TAF:

METAR-TAF

Aeroports :

Haifa, Israel

latitud: 32-48N, longitud: 035-02E, altitud: 8 m

Observació

L'informe es va fer fa 4 hores i 21 minuts, a les 18:50 UTC
Vent 4 kt del Nord-Est
Temperatura 22°C
Humitat 69%
Pressió 1016 hPa
Visibilitat 10 km o més
Núvols disperses a una alçada de 2900 ft

METAR: LLHA 241850Z 04004KT 9999 SCT029 22/16 Q1016

Hora: 02:11 (23:11 UTC)

Pronòstic

L'informe es va fer fa 6 hores i 10 minuts, a les 17:01 UTC
Pronòstic vàlid del 24 a les 18 UTC al 25 a les 18 UTC
Vent 6 kt del Nord/Nord-Oest
Visibilitat 10 km o més
Núvols disperses a una alçada de 3000 ft
Evolucionant progressivament
l' 24 a les 19 UTC al 24 a les 21 UTC
Vent 4 kt amb direcció variable
Evolucionant progressivament
l' 25 a les 07 UTC al 25 a les 10 UTC
Vent 10 kt del Nord/Nord-Oest

TAF: LLHA 241701Z 2418/2518 33006KT 9999 SCT030 BECMG 2419/2421 VRB04KT BECMG 2507/2510 33010KT TX26/2510Z TN19/2503Z

Observacions i pronòstics meteorològics de més de 4000 aeroports (METAR i TAF).

Les estacions disponibles són els punts grocs i vermells al mapa.

Posi el ratolí al punt desitjat per veure el nom de l'estació.

Feu clic per veure les observacions i els pronòstics meteorològics.

Per canviar el mapa: feu clic els botons verds amb una creu de color negre per apropar; al botó verd amb un guió per allunyar la imatge; o en les fletxes verdes per a mapes adjacents.


METAR-TAF: